This is the latest recevied weather packets stored in our database for station/object IK1YPD-13. If no packets are shown the sender has not sent any weather packets the latest 10 day(s).
| Time | Temp. | Humidity | Pressure | Rain* | Wind** | Luminosity | Snow |
|---|---|---|---|---|---|---|---|
| 1787912554 | 30.56° C | 61% | 1012 hPa | - | - | - | - |
| 1787911653 | 30.56° C | 61% | 1012 hPa | - | - | - | - |
| 1787910753 | 30.56° C | 62% | 1012 hPa | - | - | - | - |
| 1787909853 | 31.11° C | 63% | 1012 hPa | - | - | - | - |
| 1787908953 | 30.56° C | 63% | 1012 hPa | - | - | - | - |
| 1787908053 | 30° C | 65% | 1012 hPa | - | - | - | - |
| 1787907153 | 30° C | 66% | 1012 hPa | - | - | - | - |
| 1787906253 | 30.56° C | 65% | 1012 hPa | - | - | - | - |
| 1787905353 | 30.56° C | 64% | 1012 hPa | - | - | - | - |
| 1787904453 | 31.11° C | 60% | 1011 hPa | - | - | - | - |
| 1787903553 | 30.56° C | 62% | 1011 hPa | - | - | - | - |
| 1787902653 | 30° C | 64% | 1011 hPa | - | - | - | - |
| 1787901753 | 29.44° C | 73% | 1011 hPa | - | - | - | - |
| 1787900853 | 28.89° C | 81% | 1011 hPa | - | - | - | - |
| 1787899953 | 27.78° C | 84% | 1012 hPa | - | - | - | - |
| 1787899052 | 27.22° C | 90% | 1012 hPa | - | - | - | - |
| 1787898152 | 26.67° C | 91% | 1012 hPa | - | - | - | - |
| 1787897252 | 26.11° C | 91% | 1012 hPa | - | - | - | - |
| 1787896352 | 26.11° C | 92% | 1012 hPa | - | - | - | - |
| 1787895452 | 26.11° C | 92% | 1013 hPa | - | - | - | - |
| 1787894552 | 26.11° C | 92% | 1013 hPa | - | - | - | - |
| 1787893652 | 26.11° C | 91% | 1013 hPa | - | - | - | - |
| 1787892752 | 26.11° C | 91% | 1012 hPa | - | - | - | - |
| 1787891852 | 26.11° C | 89% | 1013 hPa | - | - | - | - |
| 1787890952 | 26.67° C | 88% | 1012 hPa | - | - | - | - |
* Rain since midnight (hover to see other rain measurements)
** Current wind speed in m/s (hover to see current wind gust speed)